Saronic Champion — A8XF5 — position and weather

sailwx.info

Track history (hours):
 
Tides and Currents Weather Stations Pressure Air Temp Water Temp Dewpoint Dewpoint Depression Visibility Wind Speed Wind Dir Waves Ship Positions

Saronic Champion

Last reported at 2015-Jan-04 05:04 UTC. Time now 2015-Jan-27 03:23 UTC.
Position N 35°01' E 129°08'.
Warning: this ship's position is 22 days out of date.

Length 229 m; draft 9.8 m.

Type: Cargo ship. MMSI: 636014887.

Date/timePositionNaut miles runAvg speedWind from/ knotsBaromVisibWave heightAir tempDewpointWater temp
2015-Jan-04 05:04N 35°01' E 129°08'4 7.8
2015-Jan-04 04:33N 35°02' E 129°13'  
2014-Dec-25 19:33N 31°02' E 122°19'1111.4
2014-Dec-25 18:33N 31°03' E 122°06'1212.3
2014-Dec-25 17:34N 31°09' E 121°53'1110.5
2014-Dec-25 16:33N 31°17' E 121°45'1111.3
2014-Dec-25 15:34N 31°23' E 121°34'1111.3
2014-Dec-25 14:33N 31°31' E 121°24'1312.6
2014-Dec-25 13:34N 31°39' E 121°13'1413.6
2014-Dec-25 12:33N 31°47' E 120°60'1211.9
2014-Dec-25 11:33N 31°56' E 120°52'1111.3
2014-Dec-25 10:34N 31°60' E 120°39'1 1.0
2014-Dec-25 09:30N 31°59' E 120°38'0 0.0
2014-Dec-25 08:33N 31°59' E 120°38'0 0.0
2014-Dec-25 07:33N 31°59' E 120°38'0 0.0
2014-Dec-25 06:33N 31°59' E 120°38'0 0.0
2014-Dec-25 05:30N 31°59' E 120°38'  
Track history (hours):
 
Tides and Currents Weather Stations Pressure Air Temp Water Temp Dewpoint Dewpoint Depression Visibility Wind Speed Wind Dir Waves Ship Positions

Saronic Champion

Last reported at 2015-Jan-04 05:04 UTC. Time now 2015-Jan-27 03:23 UTC.
Position N 35°01' E 129°08'.
Warning: this ship's position is 22 days out of date.

Length 229 m; draft 9.8 m.

Type: Cargo ship. MMSI: 636014887.

Date/timePositionNaut miles runAvg speedWind from/ knotsBaromVisibWave heightAir tempDewpointWater temp
2015-Jan-04 05:04N 35°01' E 129°08'4 7.8
2015-Jan-04 04:33N 35°02' E 129°13'  
2014-Dec-25 19:33N 31°02' E 122°19'1111.4
2014-Dec-25 18:33N 31°03' E 122°06'1212.3
2014-Dec-25 17:34N 31°09' E 121°53'1110.5
2014-Dec-25 16:33N 31°17' E 121°45'1111.3
2014-Dec-25 15:34N 31°23' E 121°34'1111.3
2014-Dec-25 14:33N 31°31' E 121°24'1312.6
2014-Dec-25 13:34N 31°39' E 121°13'1413.6
2014-Dec-25 12:33N 31°47' E 120°60'1211.9
2014-Dec-25 11:33N 31°56' E 120°52'1111.3
2014-Dec-25 10:34N 31°60' E 120°39'1 1.0
2014-Dec-25 09:30N 31°59' E 120°38'0 0.0
2014-Dec-25 08:33N 31°59' E 120°38'0 0.0
2014-Dec-25 07:33N 31°59' E 120°38'0 0.0
2014-Dec-25 06:33N 31°59' E 120°38'0 0.0
2014-Dec-25 05:30N 31°59' E 120°38'  

Dump ship's entire track history